FW5354 Weather Reports


Display with metric or nautical units.
time (UTC)temp
F
wind
direction
speed
MPH
gust
MPH
rain 1hr
in
rain 24hr
in
rain mn
in
humidity
%
barometer
mb
20240623110050 74 121 0.0 0.0 0.00 0.00 0.00 77 1012.5
20240623104541 74 121 0.0 0.0 0.00 0.00 0.00 78 1012.3
20240623101539 74 121 0.0 0.0 0.00 0.00 0.00 77 1012.3
20240623100040 74 121 0.0 0.0 0.00 0.00 0.00 79 1012.3
20240623094540 74 121 0.0 0.0 0.00 0.00 0.00 80 1012.2
20240623091544 74 121 0.0 0.0 0.00 0.00 0.00 84 1012.4
20240623090045 74 121 0.0 0.0 0.00 0.00 0.00 85 1012.2
20240623084536 74 121 0.0 0.0 0.00 0.00 0.00 86 1012.2
20240623081531 75 121 0.0 0.0 0.00 0.00 0.00 86 1012.3
20240623080032 75 121 0.0 0.0 0.00 0.00 0.00 86 1012.5
20240623074540 75 121 0.0 0.0 0.00 0.00 0.00 86 1012.6
20240623071531 75 121 0.0 0.0 0.00 0.00 0.00 85 1012.9
20240623070029 76 121 0.0 0.0 0.00 0.00 0.00 85 1012.9
20240623064528 76 121 0.0 0.0 0.00 0.00 0.00 84 1013.1
20240623061522 77 121 0.0 0.0 0.00 0.00 0.00 82 1013.4
20240623060016 78 121 0.0 0.0 0.00 0.00 0.00 81 1013.6
20240623054514 79 121 0.0 0.0 0.00 0.00 0.00 80 1013.6
20240623051517 79 121 0.0 0.0 0.00 0.00 0.00 79 1013.7
20240623050014 80 121 0.0 0.0 0.00 0.00 0.00 78 1013.7
20240623044510 80 121 0.0 0.0 0.00 0.00 0.00 77 1013.9
20240623041505 81 121 0.0 0.0 0.00 0.00 0.00 76 1013.7
20240623040004 82 121 0.0 1.0 0.00 0.00 0.00 76 1013.6
20240623034502 82 117 0.0 0.0 0.00 0.00 0.00 75 1013.5
20240623031601 83 117 0.0 1.0 0.00 0.00 0.00 72 1013.3
20240623030107 83 119 0.0 2.0 0.00 0.00 0.00 71 1013.0
20240623024558 84 124 0.0 0.0 0.00 0.00 0.00 70 1012.9
20240623021555 85 105 0.0 1.0 0.00 0.00 0.00 66 1012.6
20240623020055 86 106 0.0 1.0 0.00 0.00 0.00 65 1012.5
20240623014554 86 105 0.0 1.0 0.00 0.00 0.00 64 1012.3
20240623011558 88 124 0.0 1.0 0.00 0.00 0.00 61 1012.0
20240623010053 89 135 0.0 1.0 0.00 0.00 0.00 60 1011.8
20240623004553 90 148 0.0 2.0 0.00 0.00 0.00 57 1011.8
20240623001553 93 129 0.0 3.0 0.00 0.00 0.00 54 1011.8
20240623000059 93 189 0.0 2.0 0.00 0.00 0.00 52 1011.7
20240622234612 93 245 0.0 4.0 0.00 0.00 0.00 51 1011.8
20240622231551 93 158 0.0 2.0 0.00 0.00 0.00 54 1011.8
20240622230054 93 250 0.0 4.0 0.00 0.00 0.00 53 1011.9
20240622224600 92 158 2.0 4.0 0.00 0.00 0.00 55 1012.0
20240622221548 93 250 0.0 5.0 0.00 0.00 0.00 54 1012.0
20240622220035 95 240 1.0 4.0 0.00 0.00 0.00 50 1012.2
20240622214556 95 238 0.0 5.0 0.00 0.00 0.00 52 1012.3
20240622213035 94 314 3.0 6.0 0.00 0.00 0.00 51 1012.5
20240622211527 95 134 0.0 6.0 0.00 0.00 0.00 50 1012.5
20240622210041 97 142 0.0 3.0 0.00 0.00 0.00 47 1012.8
20240622204527 96 108 0.0 4.0 0.00 0.00 0.00 46 1012.9
20240622203019 95 114 0.0 4.0 0.00 0.00 0.00 48 1013.0
20240622201516 95 335 1.0 5.0 0.00 0.00 0.00 47 1013.2
20240622200015 94 141 3.0 7.0 0.00 0.00 0.00 49 1013.3
20240622194511 94 134 0.0 4.0 0.00 0.00 0.00 51 1013.6
20240622193010 93 266 2.0 6.0 0.00 0.00 0.00 52 1013.7
20240622191508 93 120 0.0 1.0 0.00 0.00 0.00 53 1014.0
20240622190008 93 295 3.0 10.0 0.00 0.00 0.00 53 1014.2
20240622184503 94 110 1.0 8.0 0.00 0.00 0.00 50 1014.3
20240622183004 93 252 3.0 7.0 0.00 0.00 0.00 55 1014.3
20240622181607 93 285 1.0 5.0 0.00 0.00 0.00 54 1014.5
20240622180105 93 248 2.0 8.0 0.00 0.00 0.00 53 1014.5
20240622174556 94 254 1.0 7.0 0.00 0.00 0.00 54 1014.7
20240622173106 92 33 0.0 6.0 0.00 0.00 0.00 55 1014.8
20240622171552 92 253 2.0 7.0 0.00 0.00 0.00 52 1014.8
20240622170102 93 265 1.0 6.0 0.00 0.00 0.00 53 1015.0
20240622164548 93 148 0.0 4.0 0.00 0.00 0.00 55 1015.1
20240622163050 92 221 2.0 5.0 0.00 0.00 0.00 57 1015.2
20240622161542 92 128 0.0 4.0 0.00 0.00 0.00 56 1015.3
20240622160039 91 105 0.0 4.0 0.00 0.00 0.00 59 1015.3
20240622154543 91 79 0.0 2.0 0.00 0.00 0.00 62 1015.4
20240622153036 89 110 0.0 3.0 0.00 0.00 0.00 62 1015.4
20240622151529 89 260 0.0 5.0 0.00 0.00 0.00 65 1015.5
20240622150026 89 160 0.0 2.0 0.00 0.00 0.00 68 1015.5
20240622144521 87 248 1.0 4.0 0.00 0.00 0.00 71 1015.6
20240622143018 86 151 0.0 3.0 0.00 0.00 0.00 76 1015.8
20240622141513 85 254 0.0 3.0 0.00 0.00 0.00 79 1015.9
20240622140009 84 120 0.0 3.0 0.00 0.00 0.00 81 1015.9
20240622134509 83 243 0.0 3.0 0.00 0.00 0.00 83 1015.9
20240622133010 83 115 0.0 0.0 0.00 0.00 0.00 84 1015.8
20240622131522 81 248 0.0 0.0 0.00 0.00 0.00 86 1016.0
20240622130007 80 231 0.0 0.0 0.00 0.00 0.00 85 1016.1
20240622124513 79 220 0.0 0.0 0.00 0.00 0.00 84 1016.1
20240622123004 78 220 0.0 0.0 0.00 0.00 0.00 79 1016.1
20240622121503 77 141 0.0 0.0 0.00 0.00 0.00 76 1016.2
20240622120002 77 141 0.0 0.0 0.00 0.00 0.00 76 1016.0
20240622114501 77 141 0.0 0.0 0.00 0.00 0.00 77 1015.9
20240622113004 77 141 0.0 0.0 0.00 0.00 0.00 78 1015.9
20240622111602 77 141 0.0 0.0 0.00 0.00 0.00 77 1015.8